sensor_id;sensor_type;location;lat;lon;timestamp;pressure;altitude;pressure_sealevel;temperature;humidity
47809;BME280;33573;38.790;-77.084;2023-05-20T00:01:13;101942.37;;;23.14;32.01
47809;BME280;33573;38.790;-77.084;2023-05-20T00:03:38;101937.71;;;22.98;33.02
47809;BME280;33573;38.790;-77.084;2023-05-20T00:06:03;101937.86;;;22.67;33.52
47809;BME280;33573;38.790;-77.084;2023-05-20T00:08:28;101941.88;;;22.65;33.45
47809;BME280;33573;38.790;-77.084;2023-05-20T00:10:54;101939.54;;;22.62;33.94
47809;BME280;33573;38.790;-77.084;2023-05-20T00:13:19;101940.22;;;22.34;33.90
47809;BME280;33573;38.790;-77.084;2023-05-20T00:15:44;101943.74;;;22.22;34.06
47809;BME280;33573;38.790;-77.084;2023-05-20T00:18:10;101942.64;;;22.59;33.91
47809;BME280;33573;38.790;-77.084;2023-05-20T00:20:35;101939.09;;;22.65;33.86
47809;BME280;33573;38.790;-77.084;2023-05-20T00:23:01;101943.24;;;22.35;33.96
47809;BME280;33573;38.790;-77.084;2023-05-20T00:25:26;101942.60;;;22.31;34.06
47809;BME280;33573;38.790;-77.084;2023-05-20T00:27:52;101939.85;;;22.45;33.91
47809;BME280;33573;38.790;-77.084;2023-05-20T00:30:17;101941.93;;;22.52;33.85
47809;BME280;33573;38.790;-77.084;2023-05-20T00:32:42;101940.85;;;22.59;33.76
47809;BME280;33573;38.790;-77.084;2023-05-20T00:35:08;101941.76;;;22.81;33.76
47809;BME280;33573;38.790;-77.084;2023-05-20T00:37:33;101939.51;;;22.64;33.68
47809;BME280;33573;38.790;-77.084;2023-05-20T00:39:59;101935.89;;;22.33;34.12
47809;BME280;33573;38.790;-77.084;2023-05-20T00:42:29;101936.87;;;22.40;34.01
47809;BME280;33573;38.790;-77.084;2023-05-20T00:44:55;101936.89;;;22.39;34.09
47809;BME280;33573;38.790;-77.084;2023-05-20T00:47:16;101936.03;;;22.28;33.92
47809;BME280;33573;38.790;-77.084;2023-05-20T00:49:40;101938.28;;;22.44;34.03
47809;BME280;33573;38.790;-77.084;2023-05-20T00:52:06;101938.51;;;22.30;33.96
47809;BME280;33573;38.790;-77.084;2023-05-20T00:54:31;101939.75;;;22.51;34.02
47809;BME280;33573;38.790;-77.084;2023-05-20T00:56:57;101942.41;;;22.84;33.88
47809;BME280;33573;38.790;-77.084;2023-05-20T00:59:22;101939.17;;;22.23;34.37
47809;BME280;33573;38.790;-77.084;2023-05-20T01:01:52;101938.51;;;22.27;34.34
47809;BME280;33573;38.790;-77.084;2023-05-20T01:04:18;101938.19;;;22.26;34.35
47809;BME280;33573;38.790;-77.084;2023-05-20T01:06:38;101932.91;;;22.59;34.22
47809;BME280;33573;38.790;-77.084;2023-05-20T01:09:03;101933.40;;;22.41;34.20
47809;BME280;33573;38.790;-77.084;2023-05-20T01:11:36;101936.14;;;22.64;34.19
47809;BME280;33573;38.790;-77.084;2023-05-20T01:13:56;101941.47;;;22.38;34.25
47809;BME280;33573;38.790;-77.084;2023-05-20T01:16:22;101944.74;;;22.04;34.43
47809;BME280;33573;38.790;-77.084;2023-05-20T01:18:46;101943.97;;;22.64;34.31
47809;BME280;33573;38.790;-77.084;2023-05-20T01:21:11;101943.61;;;22.54;34.22
47809;BME280;33573;38.790;-77.084;2023-05-20T01:23:38;101949.45;;;22.35;34.44
47809;BME280;33573;38.790;-77.084;2023-05-20T01:26:01;101950.62;;;22.42;34.39
47809;BME280;33573;38.790;-77.084;2023-05-20T01:28:27;101951.32;;;22.35;34.48
47809;BME280;33573;38.790;-77.084;2023-05-20T01:30:55;101951.77;;;22.36;34.49
47809;BME280;33573;38.790;-77.084;2023-05-20T01:33:19;101951.95;;;22.39;34.49
47809;BME280;33573;38.790;-77.084;2023-05-20T01:35:43;101953.42;;;22.26;34.74
47809;BME280;33573;38.790;-77.084;2023-05-20T01:38:08;101953.96;;;22.51;34.80
47809;BME280;33573;38.790;-77.084;2023-05-20T01:40:34;101954.48;;;22.38;34.71
47809;BME280;33573;38.790;-77.084;2023-05-20T01:42:59;101952.63;;;22.24;34.95
47809;BME280;33573;38.790;-77.084;2023-05-20T01:45:24;101954.10;;;22.37;34.74
47809;BME280;33573;38.790;-77.084;2023-05-20T01:47:50;101951.87;;;22.40;34.77
47809;BME280;33573;38.790;-77.084;2023-05-20T01:50:15;101957.31;;;22.55;34.94
47809;BME280;33573;38.790;-77.084;2023-05-20T01:52:40;101960.25;;;22.37;34.89
47809;BME280;33573;38.790;-77.084;2023-05-20T01:55:06;101959.34;;;22.66;34.86
47809;BME280;33573;38.790;-77.084;2023-05-20T01:57:31;101960.22;;;22.38;34.94
47809;BME280;33573;38.790;-77.084;2023-05-20T01:59:57;101959.96;;;22.36;35.02
47809;BME280;33573;38.790;-77.084;2023-05-20T02:02:22;101958.21;;;22.45;35.26
47809;BME280;33573;38.790;-77.084;2023-05-20T02:04:49;101959.46;;;22.49;35.24
47809;BME280;33573;38.790;-77.084;2023-05-20T02:07:13;101958.71;;;22.26;35.28
47809;BME280;33573;38.790;-77.084;2023-05-20T02:09:38;101956.77;;;22.58;35.22
47809;BME280;33573;38.790;-77.084;2023-05-20T02:12:04;101956.16;;;22.70;35.16
47809;BME280;33573;38.790;-77.084;2023-05-20T02:14:29;101956.52;;;22.25;35.41
47809;BME280;33573;38.790;-77.084;2023-05-20T02:16:55;101954.78;;;22.38;35.32
47809;BME280;33573;38.790;-77.084;2023-05-20T02:19:20;101953.65;;;22.30;35.46
47809;BME280;33573;38.790;-77.084;2023-05-20T02:21:45;101953.56;;;22.35;35.48
47809;BME280;33573;38.790;-77.084;2023-05-20T02:24:11;101951.62;;;22.29;35.55
47809;BME280;33573;38.790;-77.084;2023-05-20T02:26:36;101951.89;;;22.57;35.52
47809;BME280;33573;38.790;-77.084;2023-05-20T02:29:01;101952.86;;;22.28;35.58
47809;BME280;33573;38.790;-77.084;2023-05-20T02:31:27;101948.37;;;22.59;35.57
47809;BME280;33573;38.790;-77.084;2023-05-20T02:33:52;101944.37;;;22.37;35.61
47809;BME280;33573;38.790;-77.084;2023-05-20T02:36:18;101941.94;;;22.25;35.74
47809;BME280;33573;38.790;-77.084;2023-05-20T02:38:44;101936.85;;;22.41;35.61
47809;BME280;33573;38.790;-77.084;2023-05-20T02:41:09;101940.93;;;22.54;35.79
47809;BME280;33573;38.790;-77.084;2023-05-20T02:43:34;101938.96;;;22.23;35.92
47809;BME280;33573;38.790;-77.084;2023-05-20T02:45:59;101938.05;;;22.28;35.83
47809;BME280;33573;38.790;-77.084;2023-05-20T02:48:25;101930.53;;;22.31;36.18
47809;BME280;33573;38.790;-77.084;2023-05-20T02:50:50;101926.46;;;22.23;36.31
47809;BME280;33573;38.790;-77.084;2023-05-20T02:53:15;101925.82;;;22.24;36.36
47809;BME280;33573;38.790;-77.084;2023-05-20T02:55:41;101924.40;;;22.09;36.25
47809;BME280;33573;38.790;-77.084;2023-05-20T02:58:07;101925.01;;;22.29;36.30
47809;BME280;33573;38.790;-77.084;2023-05-20T03:00:32;101925.34;;;22.48;36.46
47809;BME280;33573;38.790;-77.084;2023-05-20T03:02:57;101929.27;;;21.98;36.53
47809;BME280;33573;38.790;-77.084;2023-05-20T03:05:28;101925.75;;;21.95;36.58
47809;BME280;33573;38.790;-77.084;2023-05-20T03:07:48;101924.51;;;22.11;36.70
47809;BME280;33573;38.790;-77.084;2023-05-20T03:10:13;101924.69;;;22.09;36.79
47809;BME280;33573;38.790;-77.084;2023-05-20T03:12:39;101923.87;;;22.13;36.71
47809;BME280;33573;38.790;-77.084;2023-05-20T03:15:05;101926.65;;;22.11;36.73
47809;BME280;33573;38.790;-77.084;2023-05-20T03:17:30;101927.40;;;22.33;36.85
47809;BME280;33573;38.790;-77.084;2023-05-20T03:19:55;101924.19;;;22.31;36.87
47809;BME280;33573;38.790;-77.084;2023-05-20T03:22:21;101922.37;;;22.00;37.02
47809;BME280;33573;38.790;-77.084;2023-05-20T03:24:46;101916.91;;;21.78;37.01
47809;BME280;33573;38.790;-77.084;2023-05-20T03:27:12;101912.72;;;21.95;37.11
47809;BME280;33573;38.790;-77.084;2023-05-20T03:29:37;101909.41;;;22.18;37.14
47809;BME280;33573;38.790;-77.084;2023-05-20T03:32:03;101905.68;;;21.90;37.24
47809;BME280;33573;38.790;-77.084;2023-05-20T03:34:28;101900.31;;;21.91;37.32
47809;BME280;33573;38.790;-77.084;2023-05-20T03:36:53;101898.70;;;22.01;37.24
47809;BME280;33573;38.790;-77.084;2023-05-20T03:39:19;101897.75;;;21.84;37.10
47809;BME280;33573;38.790;-77.084;2023-05-20T03:41:44;101894.09;;;22.00;37.25
47809;BME280;33573;38.790;-77.084;2023-05-20T03:44:09;101894.37;;;22.04;37.22
47809;BME280;33573;38.790;-77.084;2023-05-20T03:46:35;101893.53;;;22.30;37.22
47809;BME280;33573;38.790;-77.084;2023-05-20T03:49:00;101896.07;;;22.29;37.25
47809;BME280;33573;38.790;-77.084;2023-05-20T03:51:26;101893.59;;;22.16;37.45
47809;BME280;33573;38.790;-77.084;2023-05-20T03:53:51;101891.64;;;22.02;37.29
47809;BME280;33573;38.790;-77.084;2023-05-20T03:56:17;101889.84;;;22.01;37.32
47809;BME280;33573;38.790;-77.084;2023-05-20T03:58:42;101890.16;;;21.66;37.51
47809;BME280;33573;38.790;-77.084;2023-05-20T04:01:09;101895.65;;;21.85;37.66
47809;BME280;33573;38.790;-77.084;2023-05-20T04:03:33;101895.54;;;22.02;37.76
47809;BME280;33573;38.790;-77.084;2023-05-20T04:06:00;101896.00;;;21.72;37.86
47809;BME280;33573;38.790;-77.084;2023-05-20T04:08:24;101890.09;;;21.67;37.90
47809;BME280;33573;38.790;-77.084;2023-05-20T04:10:49;101886.31;;;21.99;37.79
47809;BME280;33573;38.790;-77.084;2023-05-20T04:13:20;101885.27;;;21.71;37.85
47809;BME280;33573;38.790;-77.084;2023-05-20T04:15:39;101878.62;;;21.64;37.97
47809;BME280;33573;38.790;-77.084;2023-05-20T04:18:05;101871.81;;;21.61;38.05
47809;BME280;33573;38.790;-77.084;2023-05-20T04:20:31;101867.29;;;21.90;38.02
47809;BME280;33573;38.790;-77.084;2023-05-20T04:22:56;101861.88;;;21.51;38.20
47809;BME280;33573;38.790;-77.084;2023-05-20T04:25:22;101858.34;;;21.75;38.21
47809;BME280;33573;38.790;-77.084;2023-05-20T04:27:47;101860.37;;;21.68;38.33
47809;BME280;33573;38.790;-77.084;2023-05-20T04:30:13;101859.11;;;21.71;38.35
47809;BME280;33573;38.790;-77.084;2023-05-20T04:32:38;101857.38;;;21.43;38.33
47809;BME280;33573;38.790;-77.084;2023-05-20T04:35:04;101856.04;;;21.66;38.30
47809;BME280;33573;38.790;-77.084;2023-05-20T04:37:29;101849.85;;;21.45;38.25
47809;BME280;33573;38.790;-77.084;2023-05-20T04:39:54;101845.65;;;21.74;38.21
47809;BME280;33573;38.790;-77.084;2023-05-20T04:42:20;101843.36;;;21.70;38.24
47809;BME280;33573;38.790;-77.084;2023-05-20T04:44:45;101839.36;;;21.74;38.20
47809;BME280;33573;38.790;-77.084;2023-05-20T04:47:11;101836.49;;;21.55;38.53
47809;BME280;33573;38.790;-77.084;2023-05-20T04:49:36;101834.61;;;21.66;38.31
47809;BME280;33573;38.790;-77.084;2023-05-20T04:52:01;101830.85;;;21.67;38.21
47809;BME280;33573;38.790;-77.084;2023-05-20T04:54:27;101824.01;;;21.72;38.14
47809;BME280;33573;38.790;-77.084;2023-05-20T04:56:52;101823.34;;;21.74;38.04
47809;BME280;33573;38.790;-77.084;2023-05-20T04:59:18;101817.16;;;21.70;38.14
47809;BME280;33573;38.790;-77.084;2023-05-20T05:01:43;101815.13;;;21.40;38.25
47809;BME280;33573;38.790;-77.084;2023-05-20T05:04:08;101813.51;;;21.57;38.34
47809;BME280;33573;38.790;-77.084;2023-05-20T05:06:34;101805.99;;;21.83;37.88
47809;BME280;33573;38.790;-77.084;2023-05-20T05:09:00;101799.92;;;21.73;38.04
47809;BME280;33573;38.790;-77.084;2023-05-20T05:11:24;101796.81;;;21.73;38.11
47809;BME280;33573;38.790;-77.084;2023-05-20T05:13:50;101795.83;;;21.75;38.02
47809;BME280;33573;38.790;-77.084;2023-05-20T05:16:15;101791.16;;;21.56;38.25
47809;BME280;33573;38.790;-77.084;2023-05-20T05:18:41;101789.75;;;21.58;38.21
47809;BME280;33573;38.790;-77.084;2023-05-20T05:21:06;101786.51;;;21.69;38.01
47809;BME280;33573;38.790;-77.084;2023-05-20T05:23:33;101779.35;;;21.63;38.07
47809;BME280;33573;38.790;-77.084;2023-05-20T05:25:57;101773.38;;;21.62;38.00
47809;BME280;33573;38.790;-77.084;2023-05-20T05:28:24;101769.80;;;21.57;38.09
47809;BME280;33573;38.790;-77.084;2023-05-20T05:30:48;101765.15;;;21.70;38.17
47809;BME280;33573;38.790;-77.084;2023-05-20T05:33:14;101763.68;;;21.56;38.06
47809;BME280;33573;38.790;-77.084;2023-05-20T05:35:40;101761.49;;;21.51;38.08
47809;BME280;33573;38.790;-77.084;2023-05-20T05:38:04;101755.61;;;21.48;38.09
47809;BME280;33573;38.790;-77.084;2023-05-20T05:40:30;101749.93;;;21.42;38.19
47809;BME280;33573;38.790;-77.084;2023-05-20T05:42:55;101749.30;;;21.51;38.05
47809;BME280;33573;38.790;-77.084;2023-05-20T05:45:20;101749.38;;;21.48;37.97
47809;BME280;33573;38.790;-77.084;2023-05-20T05:47:46;101744.09;;;21.62;38.10
47809;BME280;33573;38.790;-77.084;2023-05-20T05:50:11;101745.07;;;21.45;37.97
47809;BME280;33573;38.790;-77.084;2023-05-20T05:52:37;101740.94;;;21.39;38.07
47809;BME280;33573;38.790;-77.084;2023-05-20T05:55:02;101734.28;;;21.77;37.79
47809;BME280;33573;38.790;-77.084;2023-05-20T05:57:28;101724.03;;;21.72;37.90
47809;BME280;33573;38.790;-77.084;2023-05-20T05:59:53;101721.57;;;21.53;37.87
47809;BME280;33573;38.790;-77.084;2023-05-20T06:02:18;101717.80;;;21.50;37.88
47809;BME280;33573;38.790;-77.084;2023-05-20T06:04:44;101718.49;;;21.31;38.14
47809;BME280;33573;38.790;-77.084;2023-05-20T06:07:09;101719.41;;;21.24;38.04
47809;BME280;33573;38.790;-77.084;2023-05-20T06:09:34;101714.78;;;21.29;38.33
47809;BME280;33573;38.790;-77.084;2023-05-20T06:12:01;101713.72;;;20.91;38.57
47809;BME280;33573;38.790;-77.084;2023-05-20T06:14:25;101708.81;;;21.02;38.35
47809;BME280;33573;38.790;-77.084;2023-05-20T06:16:51;101707.68;;;21.30;38.29
47809;BME280;33573;38.790;-77.084;2023-05-20T06:19:16;101703.85;;;21.61;38.08
47809;BME280;33573;38.790;-77.084;2023-05-20T06:21:42;101703.12;;;21.17;38.05
47809;BME280;33573;38.790;-77.084;2023-05-20T06:24:07;101702.16;;;21.26;37.88
47809;BME280;33573;38.790;-77.084;2023-05-20T06:26:33;101694.84;;;21.31;37.83
47809;BME280;33573;38.790;-77.084;2023-05-20T06:28:58;101694.29;;;21.04;38.17
47809;BME280;33573;38.790;-77.084;2023-05-20T06:31:29;101693.90;;;21.28;38.01
47809;BME280;33573;38.790;-77.084;2023-05-20T06:33:49;101692.66;;;20.96;38.15
47809;BME280;33573;38.790;-77.084;2023-05-20T06:36:15;101691.10;;;21.19;38.17
47809;BME280;33573;38.790;-77.084;2023-05-20T06:38:40;101683.52;;;21.28;38.28
47809;BME280;33573;38.790;-77.084;2023-05-20T06:41:05;101673.40;;;21.11;38.22
47809;BME280;33573;38.790;-77.084;2023-05-20T06:43:32;101672.17;;;21.17;38.42
47809;BME280;33573;38.790;-77.084;2023-05-20T06:45:56;101675.12;;;21.39;38.15
47809;BME280;33573;38.790;-77.084;2023-05-20T06:48:21;101674.48;;;20.97;38.38
47809;BME280;33573;38.790;-77.084;2023-05-20T06:50:47;101672.54;;;20.86;39.00
47809;BME280;33573;38.790;-77.084;2023-05-20T06:53:12;101664.79;;;21.02;38.68
47809;BME280;33573;38.790;-77.084;2023-05-20T06:55:38;101660.50;;;20.80;38.50
47809;BME280;33573;38.790;-77.084;2023-05-20T06:58:03;101661.19;;;21.19;38.26
47809;BME280;33573;38.790;-77.084;2023-05-20T07:00:28;101661.14;;;20.98;38.50
47809;BME280;33573;38.790;-77.084;2023-05-20T07:02:54;101659.09;;;21.07;38.37
47809;BME280;33573;38.790;-77.084;2023-05-20T07:05:19;101658.48;;;21.01;38.43
47809;BME280;33573;38.790;-77.084;2023-05-20T07:07:45;101660.52;;;21.07;38.28
47809;BME280;33573;38.790;-77.084;2023-05-20T07:10:10;101659.31;;;20.48;38.36
47809;BME280;33573;38.790;-77.084;2023-05-20T07:12:36;101660.76;;;20.93;38.49
47809;BME280;33573;38.790;-77.084;2023-05-20T07:15:02;101656.96;;;21.02;38.30
47809;BME280;33573;38.790;-77.084;2023-05-20T07:17:27;101662.11;;;20.58;38.57
47809;BME280;33573;38.790;-77.084;2023-05-20T07:19:52;101665.34;;;20.91;38.44
47809;BME280;33573;38.790;-77.084;2023-05-20T07:22:17;101666.92;;;20.92;38.40
47809;BME280;33573;38.790;-77.084;2023-05-20T07:24:44;101664.05;;;20.85;38.45
47809;BME280;33573;38.790;-77.084;2023-05-20T07:27:08;101665.45;;;20.57;38.54
47809;BME280;33573;38.790;-77.084;2023-05-20T07:29:35;101670.41;;;20.79;38.62
47809;BME280;33573;38.790;-77.084;2023-05-20T07:31:59;101668.58;;;20.97;38.32
47809;BME280;33573;38.790;-77.084;2023-05-20T07:34:25;101672.98;;;20.83;38.57
47809;BME280;33573;38.790;-77.084;2023-05-20T07:36:50;101672.28;;;20.90;38.49
47809;BME280;33573;38.790;-77.084;2023-05-20T07:39:16;101672.62;;;20.72;38.68
47809;BME280;33573;38.790;-77.084;2023-05-20T07:41:41;101669.00;;;21.11;38.52
47809;BME280;33573;38.790;-77.084;2023-05-20T07:44:07;101669.71;;;20.80;38.61
47809;BME280;33573;38.790;-77.084;2023-05-20T07:46:38;101671.08;;;20.81;38.61
47809;BME280;33573;38.790;-77.084;2023-05-20T07:48:58;101668.15;;;20.82;38.72
47809;BME280;33573;38.790;-77.084;2023-05-20T07:51:23;101663.85;;;20.77;38.81
47809;BME280;33573;38.790;-77.084;2023-05-20T07:53:49;101659.46;;;20.81;38.71
47809;BME280;33573;38.790;-77.084;2023-05-20T07:56:15;101655.36;;;20.66;39.01
47809;BME280;33573;38.790;-77.084;2023-05-20T07:58:41;101649.46;;;20.73;39.02
47809;BME280;33573;38.790;-77.084;2023-05-20T08:01:05;101637.61;;;20.91;38.83
47809;BME280;33573;38.790;-77.084;2023-05-20T08:03:30;101634.52;;;20.63;38.91
47809;BME280;33573;38.790;-77.084;2023-05-20T08:05:55;101633.34;;;20.57;38.94
47809;BME280;33573;38.790;-77.084;2023-05-20T08:08:21;101636.90;;;20.49;39.19
47809;BME280;33573;38.790;-77.084;2023-05-20T08:10:46;101642.19;;;20.72;39.02
47809;BME280;33573;38.790;-77.084;2023-05-20T08:13:16;101644.45;;;20.57;39.49
47809;BME280;33573;38.790;-77.084;2023-05-20T08:15:37;101638.81;;;20.70;39.29
47809;BME280;33573;38.790;-77.084;2023-05-20T08:18:02;101638.11;;;20.55;39.24
47809;BME280;33573;38.790;-77.084;2023-05-20T08:20:28;101634.85;;;20.94;39.37
47809;BME280;33573;38.790;-77.084;2023-05-20T08:22:53;101633.56;;;20.74;39.56
47809;BME280;33573;38.790;-77.084;2023-05-20T08:25:24;101636.14;;;20.94;39.50
47809;BME280;33573;38.790;-77.084;2023-05-20T08:27:44;101638.90;;;20.96;39.45
47809;BME280;33573;38.790;-77.084;2023-05-20T08:30:10;101643.70;;;21.01;39.55
47809;BME280;33573;38.790;-77.084;2023-05-20T08:32:35;101636.25;;;21.03;39.71
47809;BME280;33573;38.790;-77.084;2023-05-20T08:35:00;101629.79;;;20.73;40.23
47809;BME280;33573;38.790;-77.084;2023-05-20T08:37:26;101624.71;;;21.20;40.16
47809;BME280;33573;38.790;-77.084;2023-05-20T08:39:51;101618.58;;;21.12;40.46
47809;BME280;33573;38.790;-77.084;2023-05-20T08:42:21;101610.99;;;21.31;40.32
47809;BME280;33573;38.790;-77.084;2023-05-20T08:44:45;101605.79;;;21.04;40.69
47809;BME280;33573;38.790;-77.084;2023-05-20T08:47:08;101600.91;;;20.76;40.91
47809;BME280;33573;38.790;-77.084;2023-05-20T08:49:33;101594.12;;;20.84;40.96
47809;BME280;33573;38.790;-77.084;2023-05-20T08:51:59;101595.67;;;20.97;41.13
47809;BME280;33573;38.790;-77.084;2023-05-20T08:54:25;101593.82;;;21.04;41.24
47809;BME280;33573;38.790;-77.084;2023-05-20T08:56:49;101593.15;;;21.00;41.52
47809;BME280;33573;38.790;-77.084;2023-05-20T08:59:16;101586.66;;;21.20;41.04
47809;BME280;33573;38.790;-77.084;2023-05-20T09:01:41;101588.04;;;21.23;41.01
47809;BME280;33573;38.790;-77.084;2023-05-20T09:04:05;101590.70;;;20.87;41.36
47809;BME280;33573;38.790;-77.084;2023-05-20T09:08:56;101584.65;;;21.07;41.44
47809;BME280;33573;38.790;-77.084;2023-05-20T09:11:21;101579.00;;;21.10;41.58
47809;BME280;33573;38.790;-77.084;2023-05-20T09:13:48;101578.20;;;21.08;41.54
47809;BME280;33573;38.790;-77.084;2023-05-20T09:16:12;101575.93;;;20.86;41.75
47809;BME280;33573;38.790;-77.084;2023-05-20T09:18:38;101575.02;;;21.16;41.52
47809;BME280;33573;38.790;-77.084;2023-05-20T09:21:05;101574.23;;;20.98;41.76
47809;BME280;33573;38.790;-77.084;2023-05-20T09:23:36;101567.85;;;21.33;41.53
47809;BME280;33573;38.790;-77.084;2023-05-20T09:25:54;101566.52;;;21.36;41.38
47809;BME280;33573;38.790;-77.084;2023-05-20T09:28:21;101565.01;;;21.02;41.62
47809;BME280;33573;38.790;-77.084;2023-05-20T09:30:48;101564.77;;;20.71;41.93
47809;BME280;33573;38.790;-77.084;2023-05-20T09:33:11;101569.79;;;20.69;41.93
47809;BME280;33573;38.790;-77.084;2023-05-20T09:35:36;101568.68;;;20.99;41.85
47809;BME280;33573;38.790;-77.084;2023-05-20T09:38:02;101571.74;;;21.01;41.85
47809;BME280;33573;38.790;-77.084;2023-05-20T09:40:27;101571.22;;;21.18;42.16
47809;BME280;33573;38.790;-77.084;2023-05-20T09:42:53;101565.48;;;21.01;42.08
47809;BME280;33573;38.790;-77.084;2023-05-20T09:45:17;101568.68;;;21.06;42.03
47809;BME280;33573;38.790;-77.084;2023-05-20T09:47:43;101571.56;;;21.41;41.78
47809;BME280;33573;38.790;-77.084;2023-05-20T09:50:08;101571.39;;;20.68;42.44
47809;BME280;33573;38.790;-77.084;2023-05-20T09:52:34;101566.43;;;21.36;41.84
47809;BME280;33573;38.790;-77.084;2023-05-20T09:55:05;101565.41;;;21.28;41.86
47809;BME280;33573;38.790;-77.084;2023-05-20T09:57:24;101566.44;;;21.13;41.95
47809;BME280;33573;38.790;-77.084;2023-05-20T09:59:50;101570.23;;;21.10;42.16
47809;BME280;33573;38.790;-77.084;2023-05-20T10:02:15;101574.38;;;21.01;42.32
47809;BME280;33573;38.790;-77.084;2023-05-20T10:04:43;101575.18;;;20.92;42.48
47809;BME280;33573;38.790;-77.084;2023-05-20T10:07:20;101574.63;;;21.12;42.06
47809;BME280;33573;38.790;-77.084;2023-05-20T10:09:44;101569.33;;;21.26;42.12
47809;BME280;33573;38.790;-77.084;2023-05-20T10:12:04;101566.18;;;20.83;42.26
47809;BME280;33573;38.790;-77.084;2023-05-20T10:14:33;101568.14;;;20.75;42.21
47809;BME280;33573;38.790;-77.084;2023-05-20T10:16:53;101571.62;;;20.77;42.44
47809;BME280;33573;38.790;-77.084;2023-05-20T10:19:26;101575.64;;;20.95;42.58
47809;BME280;33573;38.790;-77.084;2023-05-20T10:21:39;101577.09;;;20.73;42.58
47809;BME280;33573;38.790;-77.084;2023-05-20T10:24:05;101578.68;;;21.16;42.44
47809;BME280;33573;38.790;-77.084;2023-05-20T10:26:35;101578.03;;;20.96;42.55
47809;BME280;33573;38.790;-77.084;2023-05-20T10:28:55;101577.75;;;21.22;42.51
47809;BME280;33573;38.790;-77.084;2023-05-20T10:31:30;101578.77;;;21.00;42.60
47809;BME280;33573;38.790;-77.084;2023-05-20T10:33:47;101574.11;;;20.99;42.85
47809;BME280;33573;38.790;-77.084;2023-05-20T10:36:21;101571.27;;;21.20;42.76
47809;BME280;33573;38.790;-77.084;2023-05-20T10:38:48;101570.80;;;21.00;42.70
47809;BME280;33573;38.790;-77.084;2023-05-20T10:41:07;101573.05;;;21.20;42.74
47809;BME280;33573;38.790;-77.084;2023-05-20T10:43:27;101577.42;;;21.01;42.54
47809;BME280;33573;38.790;-77.084;2023-05-20T10:45:54;101573.38;;;21.03;42.49
47809;BME280;33573;38.790;-77.084;2023-05-20T10:48:22;101568.94;;;20.61;43.00
47809;BME280;33573;38.790;-77.084;2023-05-20T10:50:44;101568.54;;;20.96;42.94
47809;BME280;33573;38.790;-77.084;2023-05-20T10:53:13;101563.77;;;21.09;43.23
47809;BME280;33573;38.790;-77.084;2023-05-20T10:55:38;101560.93;;;21.19;43.11
47809;BME280;33573;38.790;-77.084;2023-05-20T10:57:59;101559.72;;;20.68;43.01
47809;BME280;33573;38.790;-77.084;2023-05-20T11:00:25;101558.25;;;20.85;42.79
47809;BME280;33573;38.790;-77.084;2023-05-20T11:02:50;101556.45;;;20.65;43.29
47809;BME280;33573;38.790;-77.084;2023-05-20T11:05:16;101558.53;;;21.03;42.89
47809;BME280;33573;38.790;-77.084;2023-05-20T11:07:41;101561.20;;;20.90;42.76
47809;BME280;33573;38.790;-77.084;2023-05-20T11:10:08;101559.58;;;21.46;42.65
47809;BME280;33573;38.790;-77.084;2023-05-20T11:12:32;101556.73;;;20.82;43.24
47809;BME280;33573;38.790;-77.084;2023-05-20T11:14:57;101557.61;;;21.16;43.23
47809;BME280;33573;38.790;-77.084;2023-05-20T11:17:22;101554.09;;;21.12;43.25
47809;BME280;33573;38.790;-77.084;2023-05-20T11:19:49;101551.00;;;20.67;43.31
47809;BME280;33573;38.790;-77.084;2023-05-20T11:22:13;101545.36;;;20.80;43.55
47809;BME280;33573;38.790;-77.084;2023-05-20T11:24:38;101544.71;;;21.20;43.35
47809;BME280;33573;38.790;-77.084;2023-05-20T11:27:05;101544.63;;;21.15;43.36
47809;BME280;33573;38.790;-77.084;2023-05-20T11:29:30;101545.16;;;20.60;43.49
47809;BME280;33573;38.790;-77.084;2023-05-20T11:31:55;101546.63;;;20.90;43.18
47809;BME280;33573;38.790;-77.084;2023-05-20T11:34:20;101548.97;;;21.00;43.58
47809;BME280;33573;38.790;-77.084;2023-05-20T11:36:45;101552.73;;;21.09;43.48
47809;BME280;33573;38.790;-77.084;2023-05-20T11:39:11;101558.73;;;20.92;43.61
47809;BME280;33573;38.790;-77.084;2023-05-20T11:41:36;101558.22;;;20.74;43.73
47809;BME280;33573;38.790;-77.084;2023-05-20T11:44:01;101557.51;;;21.04;43.58
47809;BME280;33573;38.790;-77.084;2023-05-20T11:46:27;101552.02;;;20.91;43.96
47809;BME280;33573;38.790;-77.084;2023-05-20T11:48:53;101550.64;;;20.90;43.62
47809;BME280;33573;38.790;-77.084;2023-05-20T11:51:18;101548.12;;;20.77;43.39
47809;BME280;33573;38.790;-77.084;2023-05-20T11:53:46;101541.20;;;21.18;43.52
47809;BME280;33573;38.790;-77.084;2023-05-20T11:56:09;101538.72;;;20.83;43.28
47809;BME280;33573;38.790;-77.084;2023-05-20T11:58:34;101539.76;;;21.11;43.25
47809;BME280;33573;38.790;-77.084;2023-05-20T12:00:59;101538.95;;;20.75;43.42
47809;BME280;33573;38.790;-77.084;2023-05-20T12:03:25;101539.93;;;21.22;43.40
47809;BME280;33573;38.790;-77.084;2023-05-20T12:05:51;101534.31;;;21.27;43.40
47809;BME280;33573;38.790;-77.084;2023-05-20T12:08:16;101528.02;;;21.34;43.32
47809;BME280;33573;38.790;-77.084;2023-05-20T12:10:41;101530.68;;;20.97;43.58
47809;BME280;33573;38.790;-77.084;2023-05-20T12:13:07;101536.24;;;20.79;43.59
47809;BME280;33573;38.790;-77.084;2023-05-20T12:15:32;101537.03;;;21.13;43.28
47809;BME280;33573;38.790;-77.084;2023-05-20T12:17:58;101538.39;;;21.57;42.63
47809;BME280;33573;38.790;-77.084;2023-05-20T12:20:24;101538.31;;;21.45;42.51
47809;BME280;33573;38.790;-77.084;2023-05-20T12:22:49;101535.47;;;21.45;42.49